Station: Scone Airport  

  Atmospheric Gas Attenuation - ITU Rec 676-11   ----------------- dB/100km -----------------
Date Time Temp RH % AH g/m3 Dew Point Wind Direction Speed kph Gust kph Barometer mB Rainfall Since 9am 24GHz 47GHz 76GHz 122GHz 134GHz 241GHz
08/05 12:30 17.7 40 6.03 3.9 26 37 1019.9 0 14.0 21.2 28.8 75.1 63.3 215.8
08/05 12:20 17.5 40 5.96 3.8 26 32 1020 0 13.8 21.2 28.7 74.7 62.7 213.5
08/05 12:10 18.1 40 6.18 4.3 26 32 1020.2 0 14.3 21.4 29.2 76.2 64.7 220.8
08/05 12:00 17.2 42 6.15 4.2 28 39 1020.3 0 14.2 21.5 29.4 76.7 65.1 222.1
08/05 11:50 16.9 42 6.04 3.9 24 30 1020.5 0 14.0 21.5 29.2 76.0 64.1 218.4
08/05 11:40 16.5 43 6.04 3.9 19 24 1020.6 0 14.0 21.6 29.3 76.4 64.4 219.5
08/05 11:30 16.1 42 5.76 3.2 24 37 1020.9 0 13.5 21.3 28.5 74.1 61.5 209.2
08/05 11:20 16.4 44 6.14 4.1 20 24 1021 0 14.3 21.7 29.7 77.4 65.7 224.0
08/05 11:10 16 45 6.13 4.1 24 32 1021.1 0 14.3 21.8 29.8 77.7 65.9 224.7
08/05 11:00 15.9 45 6.09 4 22 39 1021.4 0 14.2 21.8 29.7 77.5 65.5 223.4
08/05 10:50 15.4 45 5.91 3.5 22 26 1021.5 0 13.8 21.7 29.3 76.3 63.8 217.3
08/05 10:40 15.5 46 6.08 3.9 19 26 1021.7 0 14.2 21.9 29.9 77.8 65.7 224.1
08/05 10:30 15.1 47 6.06 3.9 22 32 1021.8 0 14.1 22.0 29.9 78.0 65.8 224.4
08/05 10:20 14.7 48 6.04 3.8 26 32 1021.8 0 14.1 22.0 30.0 78.2 65.9 224.7
08/05 10:10 14.5 48 5.97 3.6 24 35 1021.8 0 14.0 22.0 29.8 77.7 65.3 222.3
08/05 10:00 14.2 48 5.86 3.4 19 32 1021.9 0 13.7 21.9 29.6 76.9 64.2 218.5
08/05 09:50 14 49 5.91 3.5 13 15 1022.1 0 13.9 22.0 29.8 77.6 65.0 221.2
08/05 09:40 13.5 50 5.85 3.3 17 20 1022.2 0 13.8 22.0 29.8 77.5 64.7 220.1
08/05 09:30 13.4 50 5.81 3.2 17 30 1022.3 0 13.7 22.0 29.7 77.3 64.3 218.7
08/05 09:20 13 51 5.78 3.1 24 28 1022.2 0 13.6 22.1 29.7 77.3 64.2 218.5
08/05 09:10 12.5 52 5.72 2.9 24 26 1022.3 0 13.5 22.1 29.7 77.2 63.9 217.3
08/05 09:00 12.5 54 5.94 3.5 15 20 1022.3 0 14.0 22.4 30.5 79.4 66.6 226.7
08/05 08:50 12.1 55 5.9 3.3 13 15 1022.3 0 13.9 22.5 30.5 79.4 66.4 226.1
08/05 08:40 11.6 55 5.72 2.9 15 17 1022.3 0 13.5 22.3 30.0 78.1 64.6 219.7
08/05 08:30 11.4 57 5.85 3.2 19 28 1022.4 0 13.8 22.6 30.6 79.6 66.4 225.9
08/05 08:20 11.2 57 5.78 3 17 20 1022.2 0 13.7 22.5 30.4 79.1 65.7 223.4
08/05 08:10 10.9 58 5.77 3 11 15 1022.2 0 13.7 22.6 30.4 79.3 65.8 223.8
08/05 08:00 10.3 58 5.56 2.4 15 24 1022.1 0 13.2 22.4 29.9 77.8 63.7 216.3
08/05 07:50 9.9 59 5.51 2.3 15 17 1022.1 0 13.2 22.4 29.8 77.7 63.4 215.2
08/05 07:40 9.4 60 5.43 2 17 19 1022.3 0 13.0 22.4 29.7 77.4 62.8 213.1
08/05 07:30 9.3 61 5.48 2.2 7 15 1022.4 0 13.1 22.5 30.0 78.0 63.5 215.6
08/05 07:20 8.8 62 5.4 1.9 13 13 1022.3 0 13.0 22.5 29.8 77.6 62.9 213.4
08/05 07:10 8.3 64 5.4 1.9 15 17 1022.3 0 13.0 22.6 30.0 78.1 63.3 214.7
08/05 07:00 8.1 64 5.33 1.7 15 28 1022.2 0 12.8 22.6 29.8 77.6 62.6 212.1
08/05 06:50 7.9 65 5.34 1.7 15 19 1022.2 0 12.9 22.7 29.9 77.9 62.9 213.1
08/05 06:40 7.6 65 5.24 1.5 15 19 1022.2 0 12.7 22.6 29.7 77.2 61.9 209.4
08/05 06:30 7.6 65 5.24 1.5 15 22 1022.2 0 12.7 22.6 29.7 77.2 61.9 209.4
08/05 06:20 7.2 65 5.1 1.1 13 15 1022.2 0 12.4 22.5 29.3 76.1 60.4 204.3
08/05 06:10 7.5 64 5.13 1.1 15 17 1022 0 12.4 22.4 29.3 76.1 60.5 204.8
08/05 06:00 7.8 64 5.23 1.4 15 22 1022 0 12.6 22.5 29.5 76.8 61.6 208.4
08/05 05:50 7 66 5.12 1.1 13 17 1021.7 0 12.4 22.5 29.4 76.5 60.8 205.6
08/05 05:40 7 66 5.12 1.1 13 17 1021.6 0 12.4 22.5 29.4 76.5 60.8 205.5
08/05 05:30 6.9 65 5.01 0.8 7 17 1021.5 0 12.2 22.4 29.0 75.4 59.5 200.9
08/05 05:20 7.3 65 5.14 1.2 9 13 1021.5 0 12.5 22.5 29.4 76.4 60.8 205.6
08/05 05:10 7.1 64 4.99 0.8 6 7 1021.6 0 12.1 22.3 28.9 75.0 59.1 199.5
08/05 05:00 7.4 63 5.01 0.8 9 15 1021.4 0 12.2 22.2 28.8 74.9 59.1 199.6
08/05 04:50 7.5 63 5.04 0.9 17 20 1021.4 0 12.2 22.3 28.9 75.1 59.4 200.7
08/05 04:40 7.7 62 5.03 0.9 17 20 1021.2 0 12.2 22.2 28.8 74.8 59.1 199.7
08/05 04:30 7.4 62 4.93 0.6 15 24 1021.3 0 12.0 22.1 28.5 74.1 58.1 196.1
08/05 04:20 7.8 61 4.98 0.8 11 13 1021.4 0 12.1 22.1 28.6 74.3 58.4 197.3
08/05 04:10 7.6 61 4.92 0.6 15 22 1021.4 0 12.0 22.1 28.4 73.8 57.8 195.2
08/05 04:00 7.7 61 4.95 0.7 15 30 1021 0 12.0 22.1 28.5 74.0 58.1 196.2
08/05 03:50 8.1 60 4.99 0.8 17 20 1021.1 0 12.1 22.0 28.5 74.1 58.3 197.0
08/05 03:40 7.5 61 4.88 0.5 11 13 1021.3 0 11.9 22.0 28.3 73.5 57.4 193.6
08/05 03:30 7.6 60 4.84 0.3 15 32 1021.2 0 11.8 21.9 28.1 73.0 56.8 191.6
08/05 03:20 7.7 61 4.95 0.7 17 22 1021.3 0 12.0 22.1 28.5 74.0 58.1 196.2
08/05 03:10 7.6 61 4.92 0.6 13 13 1021.3 0 12.0 22.0 28.4 73.8 57.8 195.2
08/05 03:00 7.3 61 4.82 0.3 11 15 1021.4 0 11.8 22.0 28.1 73.1 56.8 191.5
08/05 02:50 7.2 61 4.79 0.2 7 11 1021.5 0 11.7 22.0 28.1 72.9 56.5 190.5
08/05 02:40 7.5 60 4.8 0.3 13 15 1021.4 0 11.7 21.9 28.0 72.7 56.4 190.2
08/05 02:30 6.9 63 4.85 0.4 9 17 1021.6 0 11.9 22.1 28.4 73.8 57.4 193.8
08/05 02:20 6.9 62 4.78 0.1 13 15 1021.6 0 11.7 22.0 28.1 73.1 56.6 190.7
08/05 02:10 7.1 60 4.68 -0.1 9 11 1021.8 0 11.5 21.8 27.7 71.9 55.2 185.9
08/05 02:00 7.3 61 4.82 0.3 11 19 1021.7 0 11.8 22.0 28.2 73.1 56.8 191.6
08/05 01:50 7.2 60 4.71 0 7 9 1021.8 0 11.5 21.8 27.8 72.1 55.5 187.0
08/05 01:40 7.5 59 4.72 0 9 13 1021.8 0 11.6 21.8 27.7 72.0 55.4 186.7
08/05 01:30 7.5 59 4.72 0 11 22 1021.8 0 11.6 21.8 27.7 72.0 55.4 186.7
08/05 01:20 7 60 4.65 -0.2 7 9 1021.8 0 11.4 21.8 27.6 71.7 54.9 184.8
08/05 01:10 7.5 58 4.64 -0.2 9 9 1021.9 0 11.4 21.7 27.4 71.2 54.4 183.3
08/05 01:00 7.6 58 4.67 -0.1 9 15 1021.8 0 11.4 21.7 27.5 71.4 54.7 184.3
08/05 00:50 8.6 54 4.64 -0.2 7 9 1021.8 0 11.3 21.4 27.0 70.2 53.7 180.8
08/05 00:40 7.6 56 4.51 -0.6 9 15 1022.1 0 11.1 21.5 26.9 69.8 52.8 177.5
08/05 00:20 8.3 54 4.55 -0.4 13 17 1022 0 11.2 21.3 26.8 69.6 52.8 177.6
08/05 00:10 8.8 52 4.53 -0.5 9 13 1022 0 11.1 21.2 26.6 68.9 52.2 175.7
08/05 00:00 8.6 53 4.56 -0.4 13 20 1022 0 11.2 21.3 26.8 69.4 52.7 177.4
07/05 23:50 8.4 54 4.58 -0.4 11 13 1022.1 0 11.2 21.4 26.9 69.8 53.1 178.7
07/05 23:40 8.7 52 4.5 -0.6 9 13 1022.1 0 11.0 21.2 26.5 68.7 51.9 174.6
07/05 23:30 8.8 51 4.44 -0.8 11 17 1022 0 10.9 21.1 26.3 68.1 51.1 171.9
07/05 23:20 9 49 4.32 -1.1 9 11 1022 0 10.7 20.8 25.8 66.7 49.6 166.4
07/05 23:10 9.1 50 4.44 -0.8 13 17 1021.9 0 10.9 21.0 26.2 67.8 50.9 171.2
07/05 23:00 9.1 48 4.26 -1.3 11 17 1021.9 0 10.5 20.7 25.5 66.1 48.8 163.7
07/05 22:50 9.3 48 4.32 -1.1 9 13 1021.8 0 10.6 20.8 25.7 66.5 49.4 165.8
07/05 22:40 9.6 47 4.31 -1.1 15 15 1021.8 0 10.6 20.7 25.5 66.1 49.1 164.7
07/05 22:30 9.5 48 4.37 -0.9 13 20 1021.6 0 10.7 20.8 25.8 66.8 49.8 167.4
07/05 22:20 8.7 49 4.24 -1.4 11 13 1021.8 0 10.5 20.8 25.6 66.2 48.8 163.6
07/05 22:10 9.2 48 4.29 -1.2 11 15 1021.7 0 10.6 20.8 25.6 66.3 49.1 164.7
07/05 22:00 7.9 52 4.27 -1.3 6 11 1021.9 0 10.6 21.0 25.9 67.2 49.6 166.5
07/05 21:50 9.1 47 4.17 -1.6 6 7 1021.9 0 10.3 20.6 25.2 65.2 47.7 159.9
07/05 21:40 9 47 4.14 -1.7 9 13 1022 0 10.3 20.6 25.1 65.0 47.4 158.9
07/05 21:30 9.6 44 4.03 -2 9 22 1022 0 10.0 20.3 24.5 63.5 45.8 153.2
07/05 21:20 10.1 43 4.07 -1.9 15 20 1021.9 0 10.1 20.2 24.5 63.5 46.0 153.9
07/05 21:10 9.6 45 4.12 -1.7 13 13 1021.7 0 10.2 20.4 24.9 64.3 46.8 156.8
07/05 21:00 8.5 48 4.1 -1.9 13 20 1021.8 0 10.2 20.6 25.1 65.0 47.2 158.2
07/05 20:50 8.4 47 3.99 -2.2 9 11 1021.6 0 10.0 20.5 24.7 64.0 46.0 153.7
07/05 20:40 9.7 42 3.87 -2.6 7 7 1021.5 0 9.7 20.0 23.9 61.9 43.8 146.4
07/05 20:30 9.7 42 3.87 -2.6 9 19 1021.5 0 9.7 20.0 23.9 61.9 43.8 146.4
07/05 20:20 9.8 42 3.9 -2.5 15 19 1021.2 0 9.7 20.0 24.0 62.0 44.1 147.4
07/05 20:10 9.7 43 3.97 -2.3 17 19 1021.1 0 9.9 20.2 24.3 62.8 45.0 150.4
07/05 20:00 10 42 3.95 -2.3 22 35 1020.9 0 9.8 20.1 24.1 62.3 44.6 149.0
07/05 19:50 10.3 40 3.83 -2.7 26 30 1020.9 0 9.6 19.8 23.6 61.0 43.0 143.6

Last Refresh: 08-May-2026 12:10:12

Bureau of Meteorology